• Join FlightAware (Why Join?)
  • Login
  • US Flag 
06:31AM EDT


 

Airport Tracker/Info


-or-


 

Live Flight TrackerFlight Track Log ✈ SWA1969 ✈ 12-Apr-2013 ✈ KOKC - KMDW

Flight Track Log - Related Links

Times and Time Zones

All times are in EDT time to prevent confusion due to time zone crossing. See the SWA1969 flight status page for this flight to view local times or setup timezone preferences in your user account.

Time Position Orientation Groundspeed Altitude Reporting Facility
EDT Latitude Longitude Course Direction KTS MPH feet Rate Location/Type
08:42AM 35.4542 -97.5919 27° Northeast 216 249 4,100  Level Fort Worth Center
08:43AM 35.4856 -97.5131 64° Northeast 284 327 6,700 2,700 Climbing Fort Worth Center
08:45AM 35.5661 -97.3275 62° Northeast 325 374 12,300 2,700 Climbing Kansas City Center
08:46AM 35.6128 -97.2153 63° Northeast 355 409 14,900 3,180 Climbing Kansas City Center
08:47AM 35.6628 -97.0964 63° Northeast 382 440 18,700 3,000 Climbing Kansas City Center
08:48AM 35.7136 -96.9728 63° Northeast 398 458 21,100 2,400 Climbing Kansas City Center
08:49AM 35.7681 -96.8417 63° Northeast 423 487 23,700 2,220 Climbing Kansas City Center
08:50AM 35.8244 -96.7047 63° Northeast 441 507 25,700 1,920 Climbing Kansas City Center
08:51AM 35.8828 -96.5625 63° Northeast 459 528 27,600 1,560 Climbing Kansas City Center
08:53AM 35.9489 -96.4003 63° Northeast 490 564 29,000 1,440 Climbing Kansas City Center
08:54AM 36.0131 -96.2422 63° Northeast 509 586 30,600 1,500 Climbing Kansas City Center
08:55AM 36.0792 -96.0800 63° Northeast 523 602 32,100 1,680 Climbing Kansas City Center
08:56AM 36.1450 -95.9167 63° Northeast 529 609 34,000 1,860 Climbing Kansas City Center
08:57AM 36.2194 -95.7372 63° Northeast 526 605 35,900 1,500 Climbing Kansas City Center
08:58AM 36.2953 -95.5858 58° Northeast 520 598 37,100 1,260 Climbing Kansas City Center
08:59AM 36.3700 -95.4308 59° Northeast 522 601 38,500 900 Climbing Kansas City Center
09:00AM 36.4417 -95.2764 60° Northeast 520 598 39,000 240 Climbing Kansas City Center
09:01AM 36.5164 -95.1242 59° Northeast 519 597 39,000  Level Kansas City Center
09:02AM 36.6269 -95.0083 40° Northeast 517 595 39,000  Level Kansas City Center
09:03AM 36.7314 -94.8914 42° Northeast 508 585 39,000  Level Kansas City Center
09:04AM 36.8386 -94.7722 42° Northeast 512 589 39,000  Level Kansas City Center
09:05AM 36.9467 -94.6544 41° Northeast 514 592 39,000  Level Kansas City Center
09:06AM 37.0714 -94.5064 43° Northeast 515 593 39,000  Level Kansas City Center
09:07AM 37.1728 -94.3806 45° Northeast 514 592 39,000  Level Kansas City Center
09:08AM 37.2758 -94.2556 44° Northeast 514 592 39,000  Level Kansas City Center
09:09AM 37.3789 -94.1300 44° Northeast 515 593 39,000  Level Kansas City Center
09:10AM 37.4733 -94.0150 44° Northeast 519 597 39,000  Level Kansas City Center
09:11AM 37.5967 -93.8603 45° Northeast 520 598 39,000  Level Kansas City Center
09:12AM 37.6997 -93.7308 45° Northeast 520 598 39,000  Level Kansas City Center
09:13AM 37.8028 -93.6028 44° Northeast 517 595 39,000  Level Kansas City Center
09:14AM 37.9067 -93.4733 44° Northeast 519 597 39,000  Level Kansas City Center
09:15AM 38.0108 -93.3439 44° Northeast 520 598 39,000  Level Kansas City Center
09:16AM 38.1125 -93.2150 45° Northeast 516 594 39,000  Level Kansas City Center
09:17AM 38.2156 -93.0856 45° Northeast 515 593 39,000  Level Kansas City Center
09:18AM 38.3192 -92.9561 44° Northeast 515 593 39,000  Level Kansas City Center
09:19AM 38.4181 -92.8272 46° Northeast 506 582 39,000  Level Kansas City Center
09:20AM 38.5172 -92.7017 45° Northeast 500 575 39,000  Level Kansas City Center
09:21AM 38.6156 -92.5750 45° Northeast 497 572 39,000  Level Kansas City Center
09:22AM 38.7144 -92.4478 45° Northeast 497 572 39,000  Level Kansas City Center
09:23AM 38.8136 -92.3164 46° Northeast 503 579 39,000  Level Kansas City Center
09:24AM 38.9122 -92.1886 45° Northeast 502 578 39,000  Level Kansas City Center
09:25AM 39.0119 -92.0611 45° Northeast 501 577 39,000  Level Kansas City Center
09:26AM 39.1297 -91.9036 46° Northeast 504 580 39,000  Level Kansas City Center
09:27AM 39.2292 -91.7719 46° Northeast 507 583 39,000  Level Kansas City Center
09:28AM 39.3319 -91.6397 45° Northeast 512 589 39,000 -120 Level Kansas City Center
09:29AM 39.4311 -91.5072 46° Northeast 513 590 38,800 -540 Descending Kansas City Center
09:30AM 39.5156 -91.3939 46° Northeast 511 588 38,000 -960 Descending Kansas City Center
09:31AM 39.6256 -91.2464 46° Northeast 505 581 36,900 -1,080 Descending Kansas City Center
09:32AM 39.7208 -91.1169 46° Northeast 498 573 35,800 -960 Descending Kansas City Center
09:33AM 39.8172 -90.9883 46° Northeast 491 565 35,000 -420 Descending Kansas City Center
09:34AM 39.9061 -90.8672 46° Northeast 489 563 35,000  Level Kansas City Center
09:35AM 40.0006 -90.7364 47° Northeast 492 566 35,000 -1,380 Level Kansas City Center
09:37AM 40.1125 -90.5828 46° Northeast 489 563 32,200 -2,400 Descending Kansas City Center
09:37AM 40.1492 -90.5325 46° Northeast 484 557 31,200 -780 Descending Chicago Center
09:38AM 40.2586 -90.3822 46° Northeast 476 548 31,000 -420 Descending Chicago Center
09:39AM 40.3508 -90.2550 46° Northeast 480 552 30,400 -780 Descending Chicago Center
09:40AM 40.4400 -90.1303 47° Northeast 472 543 29,400 -1,260 Descending Chicago Center
09:41AM 40.5528 -90.0300 34° Northeast 456 525 27,800 -1,620 Descending Chicago Center
09:42AM 40.6678 -89.9869 16° North 431 496 26,100 -1,380 Descending Chicago Center
09:43AM 40.7381 -89.8681 52° Northeast 439 505 25,000 -1,020 Descending Chicago Center
09:44AM 40.7758 -89.7181 72° East 435 501 24,000 -1,260 Descending Chicago Center
09:45AM 40.8164 -89.5722 70° East 428 493 22,400 -1,440 Descending Chicago Center
09:46AM 40.8733 -89.4333 61° Northeast 417 480 21,100 -1,500 Descending Chicago Center
09:47AM 40.9439 -89.3178 51° Northeast 407 468 19,300 -1,260 Descending Chicago Center
09:48AM 41.0231 -89.1889 51° Northeast 396 456 18,600 -1,620 Descending Chicago Center
09:49AM 41.0933 -89.0736 51° Northeast 400 460 16,000 -2,340 Descending Chicago Center
09:50AM 41.1633 -88.9594 51° Northeast 400 460 13,800 -2,340 Descending Chicago Center
09:52AM 41.2289 -88.8500 51° Northeast 384 442 11,200 -1,980 Descending Chicago Center
09:53AM 41.3011 -88.7283 52° Northeast 346 398 9,800 -1,500 Descending Chicago Center
09:54AM 41.3547 -88.6406 51° Northeast 312 359 8,100 -1,620 Descending Chicago Center
09:55AM 41.4044 -88.5553 52° Northeast 297 342 6,500 -1,080 Descending Chicago Center
09:56AM 41.4544 -88.4722 51° Northeast 290 334 6,000 -600 Descending Chicago Center
09:57AM 41.5039 -88.3886 52° Northeast 287 330 5,300 -540 Descending Chicago Center
09:58AM 41.5531 -88.3058 52° Northeast 284 327 5,000 -180 Descending Chicago Center
09:59AM 41.5642 -88.2042 82° East 286 329 5,000  Level Chicago Center
10:00AM 41.5672 -88.0983 88° East 284 327 5,000 -60 Level Chicago Center
10:01AM 41.5711 -87.9750 88° East 278 320 4,900 -360 Descending Chicago Center
10:02AM 41.5736 -87.8872 88° East 254 292 4,300 -480 Descending Chicago Center
10:03AM 41.5775 -87.8036 86° East 238 274 4,000 -540 Descending Chicago Center
10:04AM 41.5808 -87.7281 87° East 221 254 3,300 -540 Descending Chicago Center
10:05AM 41.5847 -87.6547 86° East 208 239 3,000 -180 Descending Chicago Center
10:06AM 41.5794 -87.5839 96° East 204 235 3,000 -60 Level Chicago Center
10:07AM 41.6150 -87.5506 35° Northeast 199 229 2,900 -300 Descending Chicago Center
10:08AM 41.6647 -87.5844 333° Northwest 179 206 2,500 -240 Descending Chicago Center
10:09AM 41.7000 -87.6333 314° West 161 185 2,500 -180 Level Chicago TRACON
10:10AM 41.7167 -87.6667 304° West 157 181 2,200 -600 Descending Chicago TRACON
10:11AM 41.7500 -87.7167 312° West 130 150 1,400 -780 Descending Chicago TRACON